sensor_id;sensor_type;location;lat;lon;timestamp;pressure;altitude;pressure_sealevel;temperature;humidity
78073;BME280;67281;48.770;11.440;2023-04-25T00:00:14;96570.75;;;18.99;43.59
78073;BME280;67281;48.770;11.440;2023-04-25T00:02:41;96562.78;;;18.99;44.24
78073;BME280;67281;48.770;11.440;2023-04-25T00:05:08;96574.59;;;18.96;44.10
78073;BME280;67281;48.770;11.440;2023-04-25T00:07:35;96575.91;;;19.00;44.15
78073;BME280;67281;48.770;11.440;2023-04-25T00:10:03;96576.44;;;18.96;43.98
78073;BME280;67281;48.770;11.440;2023-04-25T00:12:30;96568.63;;;18.94;44.30
78073;BME280;67281;48.770;11.440;2023-04-25T00:14:56;96574.78;;;18.95;43.93
78073;BME280;67281;48.770;11.440;2023-04-25T00:17:23;96570.63;;;18.92;44.13
78073;BME280;67281;48.770;11.440;2023-04-25T00:19:53;96571.28;;;18.94;43.63
78073;BME280;67281;48.770;11.440;2023-04-25T00:22:20;96571.47;;;18.93;43.69
78073;BME280;67281;48.770;11.440;2023-04-25T00:24:47;96576.78;;;18.93;43.62
78073;BME280;67281;48.770;11.440;2023-04-25T00:27:14;96573.00;;;18.87;44.27
78073;BME280;67281;48.770;11.440;2023-04-25T00:29:41;96563.19;;;18.88;43.88
78073;BME280;67281;48.770;11.440;2023-04-25T00:32:07;96567.16;;;18.92;43.77
78073;BME280;67281;48.770;11.440;2023-04-25T00:34:34;96571.34;;;18.86;44.08
78073;BME280;67281;48.770;11.440;2023-04-25T00:37:01;96560.38;;;18.89;44.34
78073;BME280;67281;48.770;11.440;2023-04-25T00:39:28;96568.69;;;18.86;44.23
78073;BME280;67281;48.770;11.440;2023-04-25T00:41:55;96578.47;;;18.86;44.08
78073;BME280;67281;48.770;11.440;2023-04-25T00:44:22;96579.13;;;18.88;44.16
78073;BME280;67281;48.770;11.440;2023-04-25T00:46:50;96570.88;;;18.83;44.22
78073;BME280;67281;48.770;11.440;2023-04-25T00:49:17;96570.88;;;18.83;44.47
78073;BME280;67281;48.770;11.440;2023-04-25T00:51:44;96570.03;;;18.82;43.82
78073;BME280;67281;48.770;11.440;2023-04-25T00:54:14;96566.72;;;18.80;43.79
78073;BME280;67281;48.770;11.440;2023-04-25T00:56:41;96575.34;;;18.82;43.73
78073;BME280;67281;48.770;11.440;2023-04-25T00:59:09;96573.03;;;18.79;44.51
78073;BME280;67281;48.770;11.440;2023-04-25T01:01:36;96574.03;;;18.78;43.93
78073;BME280;67281;48.770;11.440;2023-04-25T01:04:04;96574.03;;;18.78;44.41
78073;BME280;67281;48.770;11.440;2023-04-25T01:06:31;96567.09;;;18.77;44.04
78073;BME280;67281;48.770;11.440;2023-04-25T01:08:59;96569.75;;;18.77;44.32
78073;BME280;67281;48.770;11.440;2023-04-25T01:11:26;96574.41;;;18.75;44.08
78073;BME280;67281;48.770;11.440;2023-04-25T01:13:53;96569.09;;;18.75;44.58
78073;BME280;67281;48.770;11.440;2023-04-25T01:16:20;96569.25;;;18.74;44.27
78073;BME280;67281;48.770;11.440;2023-04-25T01:18:47;96567.78;;;18.71;44.63
78073;BME280;67281;48.770;11.440;2023-04-25T01:21:14;96567.78;;;18.71;44.45
78073;BME280;67281;48.770;11.440;2023-04-25T01:23:41;96572.75;;;18.74;44.01
78073;BME280;67281;48.770;11.440;2023-04-25T01:26:10;96571.91;;;18.74;44.54
78073;BME280;67281;48.770;11.440;2023-04-25T01:28:38;96570.78;;;18.68;44.62
78073;BME280;67281;48.770;11.440;2023-04-25T01:31:09;96561.81;;;18.69;44.58
78073;BME280;67281;48.770;11.440;2023-04-25T01:33:36;96563.47;;;18.70;44.75
78073;BME280;67281;48.770;11.440;2023-04-25T01:36:03;96566.13;;;18.70;44.29
78073;BME280;67281;48.770;11.440;2023-04-25T01:38:33;96559.16;;;18.69;44.40
78073;BME280;67281;48.770;11.440;2023-04-25T01:41:00;96562.00;;;18.67;43.95
78073;BME280;67281;48.770;11.440;2023-04-25T01:43:27;96559.34;;;18.67;43.89
78073;BME280;67281;48.770;11.440;2023-04-25T01:45:54;96559.50;;;18.66;44.49
78073;BME280;67281;48.770;11.440;2023-04-25T01:48:21;96557.84;;;18.65;44.07
78073;BME280;67281;48.770;11.440;2023-04-25T01:50:48;96548.06;;;18.65;43.98
78073;BME280;67281;48.770;11.440;2023-04-25T01:53:15;96553.56;;;18.64;44.62
78073;BME280;67281;48.770;11.440;2023-04-25T01:55:42;96554.56;;;18.63;44.08
78073;BME280;67281;48.770;11.440;2023-04-25T01:58:09;96562.50;;;18.63;44.33
78073;BME280;67281;48.770;11.440;2023-04-25T02:00:36;96551.25;;;18.61;44.01
78073;BME280;67281;48.770;11.440;2023-04-25T02:03:07;96552.91;;;18.62;44.01
78073;BME280;67281;48.770;11.440;2023-04-25T02:05:36;96549.56;;;18.60;43.89
78073;BME280;67281;48.770;11.440;2023-04-25T02:08:07;96542.78;;;18.57;44.22
78073;BME280;67281;48.770;11.440;2023-04-25T02:10:35;96544.63;;;18.57;44.62
78073;BME280;67281;48.770;11.440;2023-04-25T02:13:03;96548.09;;;18.57;44.20
78073;BME280;67281;48.770;11.440;2023-04-25T02:15:32;96545.44;;;18.57;44.50
78073;BME280;67281;48.770;11.440;2023-04-25T02:17:59;96547.09;;;18.58;44.43
78073;BME280;67281;48.770;11.440;2023-04-25T02:20:28;96535.66;;;18.58;44.21
78073;BME280;67281;48.770;11.440;2023-04-25T02:22:55;96538.50;;;18.56;44.08
78073;BME280;67281;48.770;11.440;2023-04-25T02:25:22;96530.34;;;18.58;44.17
78073;BME280;67281;48.770;11.440;2023-04-25T02:27:49;96544.63;;;18.57;44.67
78073;BME280;67281;48.770;11.440;2023-04-25T02:30:17;96544.81;;;18.55;44.34
78073;BME280;67281;48.770;11.440;2023-04-25T02:32:44;96543.34;;;18.53;44.09
78073;BME280;67281;48.770;11.440;2023-04-25T02:35:11;96539.03;;;18.52;44.67
78073;BME280;67281;48.770;11.440;2023-04-25T02:37:39;96539.84;;;18.52;44.45
78073;BME280;67281;48.770;11.440;2023-04-25T02:40:06;96536.53;;;18.50;44.08
78073;BME280;67281;48.770;11.440;2023-04-25T02:42:34;96531.06;;;18.52;44.62
78073;BME280;67281;48.770;11.440;2023-04-25T02:45:01;96530.25;;;18.51;44.76
78073;BME280;67281;48.770;11.440;2023-04-25T02:47:29;96530.59;;;18.48;44.33
78073;BME280;67281;48.770;11.440;2023-04-25T02:49:56;96524.63;;;18.46;44.49
78073;BME280;67281;48.770;11.440;2023-04-25T02:52:23;96525.28;;;18.48;44.09
78073;BME280;67281;48.770;11.440;2023-04-25T02:54:49;96522.81;;;18.47;44.12
78073;BME280;67281;48.770;11.440;2023-04-25T02:57:17;96525.28;;;18.48;44.50
78073;BME280;67281;48.770;11.440;2023-04-25T02:59:43;96522.81;;;18.47;44.50
78073;BME280;67281;48.770;11.440;2023-04-25T03:02:10;96523.81;;;18.46;44.76
78073;BME280;67281;48.770;11.440;2023-04-25T03:04:37;96523.97;;;18.44;44.57
78073;BME280;67281;48.770;11.440;2023-04-25T03:07:05;96514.72;;;18.40;43.99
78073;BME280;67281;48.770;11.440;2023-04-25T03:09:31;96519.19;;;18.39;44.30
78073;BME280;67281;48.770;11.440;2023-04-25T03:11:58;96515.38;;;18.42;44.34
78073;BME280;67281;48.770;11.440;2023-04-25T03:14:25;96515.72;;;18.39;44.00
78073;BME280;67281;48.770;11.440;2023-04-25T03:16:52;96513.06;;;18.39;44.25
78073;BME280;67281;48.770;11.440;2023-04-25T03:19:18;96522.19;;;18.36;44.61
78073;BME280;67281;48.770;11.440;2023-04-25T03:21:47;96513.75;;;18.33;44.55
78073;BME280;67281;48.770;11.440;2023-04-25T03:24:13;96517.06;;;18.35;43.92
78073;BME280;67281;48.770;11.440;2023-04-25T03:26:40;96508.63;;;18.31;44.27
78073;BME280;67281;48.770;11.440;2023-04-25T03:29:07;96519.56;;;18.28;44.11
78073;BME280;67281;48.770;11.440;2023-04-25T03:31:34;96518.28;;;18.24;44.42
78073;BME280;67281;48.770;11.440;2023-04-25T03:34:01;96514.09;;;18.30;44.56
78073;BME280;67281;48.770;11.440;2023-04-25T03:36:27;96515.94;;;18.29;43.74
78073;BME280;67281;48.770;11.440;2023-04-25T03:38:54;96520.22;;;18.30;44.04
78073;BME280;67281;48.770;11.440;2023-04-25T03:41:21;96519.56;;;18.28;44.70
78073;BME280;67281;48.770;11.440;2023-04-25T03:43:48;96511.44;;;18.30;44.09
78073;BME280;67281;48.770;11.440;2023-04-25T03:46:15;96509.78;;;18.29;44.11
78073;BME280;67281;48.770;11.440;2023-04-25T03:48:42;96514.13;;;18.22;44.62
78073;BME280;67281;48.770;11.440;2023-04-25T03:51:09;96502.53;;;18.23;44.70
78073;BME280;67281;48.770;11.440;2023-04-25T03:53:35;96499.06;;;18.22;44.45
78073;BME280;67281;48.770;11.440;2023-04-25T03:56:02;96501.69;;;18.22;44.41
78073;BME280;67281;48.770;11.440;2023-04-25T03:58:29;96502.34;;;18.24;44.33
78073;BME280;67281;48.770;11.440;2023-04-25T04:00:56;96504.34;;;18.22;44.12
78073;BME280;67281;48.770;11.440;2023-04-25T04:03:22;96505.19;;;18.23;44.34
78073;BME280;67281;48.770;11.440;2023-04-25T04:05:50;96500.53;;;18.25;44.29
78073;BME280;67281;48.770;11.440;2023-04-25T04:08:17;96512.97;;;18.24;44.49
78073;BME280;67281;48.770;11.440;2023-04-25T04:10:43;96505.19;;;18.23;44.60
78073;BME280;67281;48.770;11.440;2023-04-25T04:13:10;96506.34;;;18.20;44.07
78073;BME280;67281;48.770;11.440;2023-04-25T04:15:37;96516.63;;;18.23;44.48
78073;BME280;67281;48.770;11.440;2023-04-25T04:18:04;96514.97;;;18.22;43.92
78073;BME280;67281;48.770;11.440;2023-04-25T04:20:31;96514.47;;;18.19;44.45
78073;BME280;67281;48.770;11.440;2023-04-25T04:22:57;96507.19;;;18.21;44.65
78073;BME280;67281;48.770;11.440;2023-04-25T04:25:24;96512.47;;;18.21;44.14
78073;BME280;67281;48.770;11.440;2023-04-25T04:27:51;96518.78;;;18.20;44.06
78073;BME280;67281;48.770;11.440;2023-04-25T04:30:22;96509.34;;;18.17;44.21
78073;BME280;67281;48.770;11.440;2023-04-25T04:32:51;96508.34;;;18.18;44.20
78073;BME280;67281;48.770;11.440;2023-04-25T04:35:18;96512.34;;;18.14;44.18
78073;BME280;67281;48.770;11.440;2023-04-25T04:37:45;96520.97;;;18.16;44.42
78073;BME280;67281;48.770;11.440;2023-04-25T04:40:12;96513.88;;;18.09;44.89
78073;BME280;67281;48.770;11.440;2023-04-25T04:42:42;96515.16;;;18.13;44.75
78073;BME280;67281;48.770;11.440;2023-04-25T04:45:10;96519.66;;;18.12;44.75
78073;BME280;67281;48.770;11.440;2023-04-25T04:47:37;96522.13;;;18.14;44.37
78073;BME280;67281;48.770;11.440;2023-04-25T04:50:07;96518.16;;;18.10;44.35
78073;BME280;67281;48.770;11.440;2023-04-25T04:52:36;96518.00;;;18.11;44.64
78073;BME280;67281;48.770;11.440;2023-04-25T04:55:04;96519.16;;;18.09;44.67
78073;BME280;67281;48.770;11.440;2023-04-25T04:57:32;96517.66;;;18.14;44.45
78073;BME280;67281;48.770;11.440;2023-04-25T04:59:59;96517.34;;;18.09;44.81
78073;BME280;67281;48.770;11.440;2023-04-25T05:02:27;96524.13;;;18.12;44.58
78073;BME280;67281;48.770;11.440;2023-04-25T05:04:56;96521.47;;;18.12;44.17
78073;BME280;67281;48.770;11.440;2023-04-25T05:07:23;96516.81;;;18.14;44.75
78073;BME280;67281;48.770;11.440;2023-04-25T05:09:50;96515.34;;;18.11;44.05
78073;BME280;67281;48.770;11.440;2023-04-25T05:12:17;96516.81;;;18.14;44.24
78073;BME280;67281;48.770;11.440;2023-04-25T05:14:44;96520.00;;;18.09;44.53
78073;BME280;67281;48.770;11.440;2023-04-25T05:17:11;96503.91;;;18.11;44.42
78073;BME280;67281;48.770;11.440;2023-04-25T05:19:38;96509.88;;;18.13;44.89
78073;BME280;67281;48.770;11.440;2023-04-25T05:22:06;96506.41;;;18.04;44.08
78073;BME280;67281;48.770;11.440;2023-04-25T05:24:32;96510.91;;;18.03;44.61
78073;BME280;67281;48.770;11.440;2023-04-25T05:26:59;96511.22;;;18.09;44.55
78073;BME280;67281;48.770;11.440;2023-04-25T05:29:26;96511.38;;;18.07;44.93
78073;BME280;67281;48.770;11.440;2023-04-25T05:31:53;96515.03;;;18.06;44.30
78073;BME280;67281;48.770;11.440;2023-04-25T05:34:20;96516.69;;;18.07;44.44
78073;BME280;67281;48.770;11.440;2023-04-25T05:36:47;96510.56;;;18.06;44.35
78073;BME280;67281;48.770;11.440;2023-04-25T05:39:16;96518.69;;;18.05;44.36
78073;BME280;67281;48.770;11.440;2023-04-25T05:41:43;96506.41;;;18.04;44.60
78073;BME280;67281;48.770;11.440;2023-04-25T05:44:10;96511.38;;;18.07;44.32
78073;BME280;67281;48.770;11.440;2023-04-25T05:46:37;96509.38;;;18.09;44.54
78073;BME280;67281;48.770;11.440;2023-04-25T05:49:04;96503.44;;;18.07;45.03
78073;BME280;67281;48.770;11.440;2023-04-25T05:51:31;96502.09;;;18.11;44.92
78073;BME280;67281;48.770;11.440;2023-04-25T05:53:59;96504.56;;;18.13;44.91
78073;BME280;67281;48.770;11.440;2023-04-25T05:56:25;96503.91;;;18.11;44.86
78073;BME280;67281;48.770;11.440;2023-04-25T05:58:52;96507.72;;;18.08;44.72
78073;BME280;67281;48.770;11.440;2023-04-25T06:01:19;96517.50;;;18.08;44.73
78073;BME280;67281;48.770;11.440;2023-04-25T06:03:46;96511.22;;;18.09;44.83
78073;BME280;67281;48.770;11.440;2023-04-25T06:06:14;96513.69;;;18.10;44.92
78073;BME280;67281;48.770;11.440;2023-04-25T06:08:41;96505.72;;;18.10;44.99
78073;BME280;67281;48.770;11.440;2023-04-25T06:11:07;96515.81;;;18.15;44.59
78073;BME280;67281;48.770;11.440;2023-04-25T06:13:34;96511.19;;;18.17;44.30
78073;BME280;67281;48.770;11.440;2023-04-25T06:16:01;96512.00;;;18.17;44.24
78073;BME280;67281;48.770;11.440;2023-04-25T06:18:28;96515.16;;;18.13;44.75
78073;BME280;67281;48.770;11.440;2023-04-25T06:20:55;96517.31;;;18.17;44.86
78073;BME280;67281;48.770;11.440;2023-04-25T06:23:21;96524.09;;;18.20;44.60
78073;BME280;67281;48.770;11.440;2023-04-25T06:25:48;96517.97;;;18.19;44.95
78073;BME280;67281;48.770;11.440;2023-04-25T06:28:15;96531.22;;;18.19;45.02
78073;BME280;67281;48.770;11.440;2023-04-25T06:30:42;96510.19;;;18.18;44.96
78073;BME280;67281;48.770;11.440;2023-04-25T06:33:09;96516.47;;;18.17;44.36
78073;BME280;67281;48.770;11.440;2023-04-25T06:35:35;96515.66;;;18.16;44.75
78073;BME280;67281;48.770;11.440;2023-04-25T06:38:02;96520.78;;;18.18;45.15
78073;BME280;67281;48.770;11.440;2023-04-25T06:40:30;96517.97;;;18.19;44.60
78073;BME280;67281;48.770;11.440;2023-04-25T06:42:57;96507.00;;;18.22;44.78
78073;BME280;67281;48.770;11.440;2023-04-25T06:45:24;96509.31;;;18.25;44.95
78073;BME280;67281;48.770;11.440;2023-04-25T06:47:51;96501.69;;;18.22;44.51
78073;BME280;67281;48.770;11.440;2023-04-25T06:50:18;96504.69;;;18.19;44.74
78073;BME280;67281;48.770;11.440;2023-04-25T06:52:44;96511.00;;;18.18;44.25
78073;BME280;67281;48.770;11.440;2023-04-25T06:55:11;96510.22;;;18.10;44.65
78073;BME280;67281;48.770;11.440;2023-04-25T06:57:38;96518.63;;;18.21;44.74
78073;BME280;67281;48.770;11.440;2023-04-25T07:00:05;96511.63;;;18.28;44.52
78073;BME280;67281;48.770;11.440;2023-04-25T07:02:35;96508.50;;;18.25;44.14
78073;BME280;67281;48.770;11.440;2023-04-25T07:05:03;96517.59;;;18.30;44.63
78073;BME280;67281;48.770;11.440;2023-04-25T07:07:30;96512.44;;;18.29;43.90
78073;BME280;67281;48.770;11.440;2023-04-25T07:09:57;96518.72;;;18.36;44.41
78073;BME280;67281;48.770;11.440;2023-04-25T07:12:24;96509.28;;;18.33;44.11
78073;BME280;67281;48.770;11.440;2023-04-25T07:14:51;96515.88;;;18.37;43.63
78073;BME280;67281;48.770;11.440;2023-04-25T07:17:17;96509.06;;;18.43;43.78
78073;BME280;67281;48.770;11.440;2023-04-25T07:19:44;96504.22;;;18.47;44.05
78073;BME280;67281;48.770;11.440;2023-04-25T07:22:11;96505.22;;;18.46;44.73
78073;BME280;67281;48.770;11.440;2023-04-25T07:24:38;96502.75;;;18.44;43.97
78073;BME280;67281;48.770;11.440;2023-04-25T07:27:05;96502.56;;;18.46;44.37
78073;BME280;67281;48.770;11.440;2023-04-25T07:29:32;96494.97;;;18.43;43.88
78073;BME280;67281;48.770;11.440;2023-04-25T07:32:02;96492.13;;;18.44;44.12
78073;BME280;67281;48.770;11.440;2023-04-25T07:34:29;96512.88;;;18.41;44.20
78073;BME280;67281;48.770;11.440;2023-04-25T07:36:56;96508.59;;;18.39;43.99
78073;BME280;67281;48.770;11.440;2023-04-25T07:39:23;96519.53;;;18.36;44.28
78073;BME280;67281;48.770;11.440;2023-04-25T07:41:50;96499.78;;;18.39;44.60
78073;BME280;67281;48.770;11.440;2023-04-25T07:44:20;96511.00;;;18.18;43.95
78073;BME280;67281;48.770;11.440;2023-04-25T07:46:47;96502.19;;;18.26;44.48
78073;BME280;67281;48.770;11.440;2023-04-25T07:49:14;96508.84;;;18.22;44.16
78073;BME280;67281;48.770;11.440;2023-04-25T07:51:41;96513.78;;;18.25;44.31
78073;BME280;67281;48.770;11.440;2023-04-25T07:54:13;96511.47;;;18.22;44.83
78073;BME280;67281;48.770;11.440;2023-04-25T07:56:40;96499.75;;;18.16;43.93
78073;BME280;67281;48.770;11.440;2023-04-25T07:59:18;96513.44;;;18.28;43.91
78073;BME280;67281;48.770;11.440;2023-04-25T08:01:45;96515.47;;;18.18;44.26
78073;BME280;67281;48.770;11.440;2023-04-25T08:04:12;96513.31;;;18.21;44.86
78073;BME280;67281;48.770;11.440;2023-04-25T08:06:39;96514.47;;;18.19;43.86
78073;BME280;67281;48.770;11.440;2023-04-25T08:09:07;96508.44;;;18.33;44.59
78073;BME280;67281;48.770;11.440;2023-04-25T08:11:36;96513.88;;;18.39;44.05
78073;BME280;67281;48.770;11.440;2023-04-25T08:14:02;96510.88;;;18.43;43.84
78073;BME280;67281;48.770;11.440;2023-04-25T08:16:29;96518.66;;;18.44;43.94
78073;BME280;67281;48.770;11.440;2023-04-25T08:18:57;96515.19;;;18.44;44.07
78073;BME280;67281;48.770;11.440;2023-04-25T08:21:23;96508.72;;;18.46;43.77
78073;BME280;67281;48.770;11.440;2023-04-25T08:23:50;96511.88;;;18.42;43.76
78073;BME280;67281;48.770;11.440;2023-04-25T08:26:17;96516.94;;;18.28;44.11
78073;BME280;67281;48.770;11.440;2023-04-25T08:28:44;96510.34;;;18.16;43.92
78073;BME280;67281;48.770;11.440;2023-04-25T08:31:10;96516.78;;;18.22;44.16
78073;BME280;67281;48.770;11.440;2023-04-25T08:33:37;96519.53;;;18.36;44.45
78073;BME280;67281;48.770;11.440;2023-04-25T08:36:04;96519.22;;;18.31;44.01
78073;BME280;67281;48.770;11.440;2023-04-25T08:38:32;96526.50;;;18.37;44.93
78073;BME280;67281;48.770;11.440;2023-04-25T08:41:00;96523.97;;;18.44;43.85
78073;BME280;67281;48.770;11.440;2023-04-25T08:43:29;96528.47;;;18.44;44.52
78073;BME280;67281;48.770;11.440;2023-04-25T08:46:00;96525.59;;;18.53;44.92
78073;BME280;67281;48.770;11.440;2023-04-25T08:48:27;96521.06;;;18.62;44.59
78073;BME280;67281;48.770;11.440;2023-04-25T08:51:01;96520.72;;;18.65;44.08
78073;BME280;67281;48.770;11.440;2023-04-25T08:53:31;96527.81;;;18.42;44.32
78073;BME280;67281;48.770;11.440;2023-04-25T08:56:01;96533.00;;;18.58;44.22
78073;BME280;67281;48.770;11.440;2023-04-25T08:58:31;96537.72;;;18.48;44.03
78073;BME280;67281;48.770;11.440;2023-04-25T09:00:58;96530.28;;;18.43;44.26
78073;BME280;67281;48.770;11.440;2023-04-25T09:03:26;96542.88;;;18.41;44.32
78073;BME280;67281;48.770;11.440;2023-04-25T09:05:55;96540.41;;;18.39;44.39
78073;BME280;67281;48.770;11.440;2023-04-25T09:08:23;96539.94;;;18.36;44.51
78073;BME280;67281;48.770;11.440;2023-04-25T09:10:50;96536.16;;;18.61;44.50
78073;BME280;67281;48.770;11.440;2023-04-25T09:13:27;96540.94;;;18.58;44.49
78073;BME280;67281;48.770;11.440;2023-04-25T09:15:56;96531.47;;;18.41;44.30
78073;BME280;67281;48.770;11.440;2023-04-25T09:18:28;96544.38;;;18.44;44.56
78073;BME280;67281;48.770;11.440;2023-04-25T09:20:58;96573.72;;;18.42;44.98
78073;BME280;67281;48.770;11.440;2023-04-25T09:23:48;96557.47;;;18.45;44.40
78073;BME280;67281;48.770;11.440;2023-04-25T09:26:18;96571.56;;;18.46;44.80
78073;BME280;67281;48.770;11.440;2023-04-25T09:28:46;96576.88;;;18.46;45.25
78073;BME280;67281;48.770;11.440;2023-04-25T09:31:23;96587.47;;;18.46;45.38
78073;BME280;67281;48.770;11.440;2023-04-25T09:34:05;96587.31;;;18.47;45.14
78073;BME280;67281;48.770;11.440;2023-04-25T09:36:54;96597.56;;;18.50;45.41
78073;BME280;67281;48.770;11.440;2023-04-25T09:39:21;96605.34;;;18.52;45.03
78073;BME280;67281;48.770;11.440;2023-04-25T09:41:53;96596.22;;;18.54;45.14
78073;BME280;67281;48.770;11.440;2023-04-25T09:44:23;96598.34;;;18.59;45.23
78073;BME280;67281;48.770;11.440;2023-04-25T09:46:51;96606.63;;;18.64;44.84
78073;BME280;67281;48.770;11.440;2023-04-25T09:49:20;96596.31;;;18.69;44.93
78073;BME280;67281;48.770;11.440;2023-04-25T09:51:55;96601.94;;;18.74;44.51
78073;BME280;67281;48.770;11.440;2023-04-25T09:54:26;96614.03;;;18.77;44.86
78073;BME280;67281;48.770;11.440;2023-04-25T09:56:53;96599.41;;;18.81;44.62
78073;BME280;67281;48.770;11.440;2023-04-25T09:59:21;96604.72;;;18.81;44.51
78073;BME280;67281;48.770;11.440;2023-04-25T10:01:49;96602.72;;;18.83;44.86
78073;BME280;67281;48.770;11.440;2023-04-25T10:04:20;96602.06;;;18.81;44.48
78073;BME280;67281;48.770;11.440;2023-04-25T10:06:49;96601.25;;;18.80;44.13
78073;BME280;67281;48.770;11.440;2023-04-25T10:09:20;96607.56;;;18.79;44.61
78073;BME280;67281;48.770;11.440;2023-04-25T10:11:47;96607.56;;;18.79;44.64
78073;BME280;67281;48.770;11.440;2023-04-25T10:14:18;96609.84;;;18.82;44.36
78073;BME280;67281;48.770;11.440;2023-04-25T10:16:46;96606.50;;;18.88;43.94
78073;BME280;67281;48.770;11.440;2023-04-25T10:19:14;96623.38;;;18.95;43.73
78073;BME280;67281;48.770;11.440;2023-04-25T10:21:54;96623.13;;;18.82;44.59
78073;BME280;67281;48.770;11.440;2023-04-25T10:24:22;96623.47;;;18.79;44.22
78073;BME280;67281;48.770;11.440;2023-04-25T10:26:50;96627.13;;;18.78;44.60
78073;BME280;67281;48.770;11.440;2023-04-25T10:29:24;96631.63;;;18.78;43.97
78073;BME280;67281;48.770;11.440;2023-04-25T10:31:52;96633.28;;;18.79;44.25
78073;BME280;67281;48.770;11.440;2023-04-25T10:34:24;96627.47;;;18.75;44.35
78073;BME280;67281;48.770;11.440;2023-04-25T10:36:53;96633.28;;;18.79;44.07
78073;BME280;67281;48.770;11.440;2023-04-25T10:39:24;96625.63;;;18.84;44.49
78073;BME280;67281;48.770;11.440;2023-04-25T10:41:58;96628.91;;;18.86;44.05
78073;BME280;67281;48.770;11.440;2023-04-25T10:44:29;96628.09;;;18.85;44.57
78073;BME280;67281;48.770;11.440;2023-04-25T10:46:59;96620.78;;;18.87;43.91
78073;BME280;67281;48.770;11.440;2023-04-25T10:49:40;96625.25;;;18.87;44.07
78073;BME280;67281;48.770;11.440;2023-04-25T10:54:55;96616.44;;;18.94;43.82
78073;BME280;67281;48.770;11.440;2023-04-25T10:57:36;96611.38;;;19.08;43.48
78073;BME280;67281;48.770;11.440;2023-04-25T11:00:08;96614.03;;;19.08;43.78
78073;BME280;67281;48.770;11.440;2023-04-25T11:02:51;96616.97;;;19.13;43.71
78073;BME280;67281;48.770;11.440;2023-04-25T11:05:34;96605.00;;;19.17;43.07
78073;BME280;67281;48.770;11.440;2023-04-25T11:08:27;96609.16;;;19.34;42.49
78073;BME280;67281;48.770;11.440;2023-04-25T11:11:01;96603.19;;;19.32;42.98
78073;BME280;67281;48.770;11.440;2023-04-25T11:13:29;96606.41;;;19.27;43.55
78073;BME280;67281;48.770;11.440;2023-04-25T11:15:57;96606.94;;;19.23;43.43
78073;BME280;67281;48.770;11.440;2023-04-25T11:18:41;96609.59;;;19.23;43.25
78073;BME280;67281;48.770;11.440;2023-04-25T11:21:08;96602.47;;;19.23;43.65
78073;BME280;67281;48.770;11.440;2023-04-25T11:23:36;96598.28;;;19.29;43.17
78073;BME280;67281;48.770;11.440;2023-04-25T11:26:05;96606.97;;;19.37;42.72
78073;BME280;67281;48.770;11.440;2023-04-25T11:28:33;96605.78;;;19.40;43.01
78073;BME280;67281;48.770;11.440;2023-04-25T11:31:00;96596.56;;;19.51;42.14
78073;BME280;67281;48.770;11.440;2023-04-25T11:33:27;96599.09;;;19.52;42.88
78073;BME280;67281;48.770;11.440;2023-04-25T11:35:55;96602.75;;;19.51;43.00
78073;BME280;67281;48.770;11.440;2023-04-25T11:38:24;96597.00;;;19.40;42.79
78073;BME280;67281;48.770;11.440;2023-04-25T11:40:53;96607.34;;;19.34;43.17
78073;BME280;67281;48.770;11.440;2023-04-25T11:43:23;96601.75;;;19.29;43.19
78073;BME280;67281;48.770;11.440;2023-04-25T11:45:50;96607.91;;;19.45;42.77
78073;BME280;67281;48.770;11.440;2023-04-25T11:48:18;96602.22;;;19.56;42.54
78073;BME280;67281;48.770;11.440;2023-04-25T11:50:51;96609.59;;;19.68;42.18
78073;BME280;67281;48.770;11.440;2023-04-25T11:53:18;96606.84;;;19.77;41.66
78073;BME280;67281;48.770;11.440;2023-04-25T11:55:45;96600.72;;;19.76;42.00
78073;BME280;67281;48.770;11.440;2023-04-25T11:58:13;96604.72;;;19.72;42.12
78073;BME280;67281;48.770;11.440;2023-04-25T12:00:42;96611.88;;;19.72;42.27
78073;BME280;67281;48.770;11.440;2023-04-25T12:03:17;96605.50;;;19.81;42.21
78073;BME280;67281;48.770;11.440;2023-04-25T12:05:45;96600.09;;;19.89;41.74
78073;BME280;67281;48.770;11.440;2023-04-25T12:08:14;96614.19;;;19.75;42.28
78073;BME280;67281;48.770;11.440;2023-04-25T12:10:45;96606.16;;;19.60;42.33
78073;BME280;67281;48.770;11.440;2023-04-25T12:13:26;96613.53;;;19.50;42.04
78073;BME280;67281;48.770;11.440;2023-04-25T12:15:55;96618.06;;;19.41;42.58
78073;BME280;67281;48.770;11.440;2023-04-25T12:18:24;96620.09;;;19.39;42.37
78073;BME280;67281;48.770;11.440;2023-04-25T12:20:54;96620.09;;;19.39;42.61
78073;BME280;67281;48.770;11.440;2023-04-25T12:23:28;96616.44;;;19.40;42.50
78073;BME280;67281;48.770;11.440;2023-04-25T12:25:55;96624.03;;;19.43;42.34
78073;BME280;67281;48.770;11.440;2023-04-25T12:28:24;96626.50;;;19.53;42.07
78073;BME280;67281;48.770;11.440;2023-04-25T12:30:54;96623.59;;;19.62;41.81
78073;BME280;67281;48.770;11.440;2023-04-25T12:33:22;96623.53;;;19.71;41.81
78073;BME280;67281;48.770;11.440;2023-04-25T12:35:49;96626.66;;;19.74;42.11
78073;BME280;67281;48.770;11.440;2023-04-25T12:38:26;96623.28;;;19.80;41.48
78073;BME280;67281;48.770;11.440;2023-04-25T12:40:54;96617.84;;;19.74;41.41
78073;BME280;67281;48.770;11.440;2023-04-25T12:43:21;96623.16;;;19.74;41.42
78073;BME280;67281;48.770;11.440;2023-04-25T12:45:52;96617.28;;;19.63;42.34
78073;BME280;67281;48.770;11.440;2023-04-25T12:48:20;96632.94;;;19.58;41.62
78073;BME280;67281;48.770;11.440;2023-04-25T12:50:49;96633.78;;;19.51;41.99
78073;BME280;67281;48.770;11.440;2023-04-25T12:53:17;96629.84;;;19.47;42.22
78073;BME280;67281;48.770;11.440;2023-04-25T12:55:44;96632.00;;;19.43;42.58
78073;BME280;67281;48.770;11.440;2023-04-25T12:58:15;96630.19;;;19.44;42.43